Time;durP1;ratioP1;P1;durP2;ratioP2;P2;SDS_P1;SDS_P2;PMS_P1;PMS_P2;Temp;Humidity;BMP_temperature;BMP_pressure;BME280_temperature;BME280_humidity;BME280_pressure;Samples;Min_cycle;Max_cycle;Signal;HPM_P1;HPM_P2
2022/06/17 00:00:15;;;;;;;;;14.67;14.67;;;;;22.19;49.28;101730.81;5112437;27;45986;-76
2022/06/17 00:02:41;;;;;;;;;16.00;16.00;;;;;22.06;49.21;101718.28;5113345;27;46176;-76
2022/06/17 00:05:07;;;;;;;;;15.67;15.67;;;;;22.07;49.47;101728.06;5101186;27;44743;-76
2022/06/17 00:07:33;;;;;;;;;13.33;13.33;;;;;21.95;50.25;101719.06;5094232;27;45223;-77
2022/06/17 00:09:58;;;;;;;;;15.00;15.00;;;;;21.97;50.08;101726.94;5093243;27;45754;-76
2022/06/17 00:12:23;;;;;;;;;14.33;14.00;;;;;21.85;50.00;101708.75;5093842;27;45340;-76
2022/06/17 00:17:32;;;;;;;;;14.67;14.67;;;;;21.82;50.14;101706.53;5093983;28;45287;-76
2022/06/17 00:19:58;;;;;;;;;15.67;15.67;;;;;21.88;50.34;101724.53;5091998;27;45464;-76
2022/06/17 00:22:25;;;;;;;;;8.00;8.00;;;;;21.87;49.97;101711.22;5092790;27;45291;-75
2022/06/17 00:24:53;;;;;;;;;14.33;14.33;;;;;21.84;50.56;101695.47;5093312;27;45292;-76
2022/06/17 00:27:18;;;;;;;;;15.33;15.00;;;;;21.86;50.80;101704.19;5108250;27;45215;-76
2022/06/17 00:29:44;;;;;;;;;13.67;13.67;;;;;21.77;50.76;101701.78;5091879;28;47322;-76
2022/06/17 00:32:09;;;;;;;;;15.33;15.00;;;;;21.76;50.23;101710.13;5090681;27;45259;-76
2022/06/17 00:34:34;;;;;;;;;14.33;14.33;;;;;21.73;50.71;101707.84;5092282;27;45346;-76
2022/06/17 00:37:02;;;;;;;;;14.33;14.00;;;;;21.65;51.44;101703.56;5093385;28;45312;-76
2022/06/17 00:39:30;;;;;;;;;15.00;15.00;;;;;21.65;50.88;101714.38;5095156;27;45304;-77
2022/06/17 00:42:03;;;;;;;;;17.33;16.00;;;;;21.53;50.78;101704.31;5111597;27;47278;-77
2022/06/17 00:44:38;;;;;;;;;15.33;14.33;;;;;21.57;51.59;101719.03;5096177;27;45257;-76
2022/06/17 00:47:26;;;;;;;;;15.00;13.67;;;;;21.56;50.97;101709.28;5097311;28;45385;-77
2022/06/17 00:49:56;;;;;;;;;16.67;16.67;;;;;;;;5067051;27;45264;-76
2022/06/17 00:52:41;;;;;;;;;16.33;16.00;;;;;21.54;51.83;101715.94;5096251;27;45308;-76
2022/06/17 00:55:26;;;;;;;;;18.33;16.00;;;;;21.51;51.78;101709.13;5093993;28;45818;-76
2022/06/17 00:57:51;;;;;;;;;18.00;18.00;;;;;21.44;51.30;101698.38;5095903;27;45357;-76
2022/06/17 01:00:23;;;;;;;;;17.33;17.00;;;;;21.46;52.14;101708.94;5097051;28;44790;-76
2022/06/17 01:03:02;;;;;;;;;16.00;16.00;;;;;21.35;52.09;101693.47;5095503;27;46141;-76
2022/06/17 01:05:52;;;;;;;;;13.67;12.67;;;;;21.40;52.75;101705.25;5095061;28;45342;-77
2022/06/17 01:11:19;;;;;;;;;17.00;16.33;;;;;21.21;52.95;101690.06;5095580;28;45313;-77
2022/06/17 01:13:49;;;;;;;;;16.00;16.00;;;;;21.23;53.40;101702.34;5093568;28;48369;-77
2022/06/17 01:16:16;;;;;;;;;17.00;15.67;;;;;21.18;53.08;101705.69;5094964;27;45216;-76
2022/06/17 01:18:44;;;;;;;;;15.67;15.67;;;;;21.06;53.02;101692.09;5096209;27;45244;-76
2022/06/17 01:21:20;;;;;;;;;15.33;15.33;;;;;21.08;52.88;101691.88;5096931;27;45327;-76
2022/06/17 01:23:48;;;;;;;;;17.00;17.00;;;;;21.12;53.45;101706.59;5111654;27;47153;-76
2022/06/17 01:26:15;;;;;;;;;15.00;15.00;;;;;21.06;53.81;101705.59;5111959;27;44921;-76
2022/06/17 01:28:40;;;;;;;;;17.67;16.33;;;;;21.02;53.41;101699.00;5095926;28;45288;-76
2022/06/17 01:31:07;;;;;;;;;13.67;13.67;;;;;21.09;53.52;101714.28;5095080;27;45251;-76
2022/06/17 01:33:35;;;;;;;;;17.00;17.00;;;;;21.07;54.08;101717.22;5096088;28;45356;-76
2022/06/17 01:36:12;;;;;;;;;16.67;16.33;;;;;21.06;53.66;101710.16;5094496;27;45205;-77
2022/06/17 01:38:39;;;;;;;;;17.67;16.00;;;;;21.05;53.59;101714.75;5094705;27;45402;-76
2022/06/17 01:41:06;;;;;;;;;15.67;15.33;;;;;21.04;54.01;101718.50;5112024;27;45366;-76
2022/06/17 01:43:37;;;;;;;;;17.00;17.00;;;;;21.04;53.78;101717.69;5095400;27;46438;-76
2022/06/17 01:46:08;;;;;;;;;17.33;17.33;;;;;20.97;54.21;101727.69;5094748;27;45256;-77
2022/06/17 01:48:39;;;;;;;;;15.67;15.67;;;;;20.97;54.04;101731.25;5110860;27;45291;-76
2022/06/17 01:51:08;;;;;;;;;16.00;16.00;;;;;20.86;54.31;101715.72;5111280;27;47383;-76
2022/06/17 01:53:39;;;;;;;;;16.00;16.00;;;;;20.88;54.37;101736.06;5096496;27;45316;-76
2022/06/17 01:56:11;;;;;;;;;16.00;16.00;;;;;20.89;54.30;101747.69;5097326;27;45325;-76
2022/06/17 01:58:43;;;;;;;;;15.00;14.00;;;;;20.83;54.22;101735.88;5096345;28;45168;-76
2022/06/17 02:01:09;;;;;;;;;15.00;15.00;;;;;20.83;54.32;101743.97;5096251;27;45256;-75
2022/06/17 02:03:46;;;;;;;;;15.00;14.00;;;;;20.75;54.50;101734.28;5095321;27;45310;-76
2022/06/17 02:06:36;;;;;;;;;16.00;15.67;;;;;20.75;55.06;101745.09;5091444;28;45764;-76
2022/06/17 02:09:02;;;;;;;;;17.67;17.00;;;;;20.69;54.59;101746.78;5075144;28;44727;-76
2022/06/17 02:11:28;;;;;;;;;16.33;16.00;;;;;20.67;55.24;101737.25;5075166;28;45390;-76
2022/06/17 02:13:53;;;;;;;;;14.00;14.00;;;;;20.63;55.43;101738.72;5074415;28;46925;-76
2022/06/17 02:16:20;;;;;;;;;11.67;11.67;;;;;20.54;55.91;101735.47;5074366;28;45423;-76
2022/06/17 02:18:47;;;;;;;;;16.67;15.67;;;;;20.50;55.32;101751.25;5075421;28;44653;-76
2022/06/17 02:21:19;;;;;;;;;17.00;15.67;;;;;20.49;55.37;101757.72;5075977;28;45416;-75
2022/06/17 02:23:45;;;;;;;;;16.00;16.00;;;;;20.39;55.02;101751.97;5074259;28;45214;-76
2022/06/17 02:26:12;;;;;;;;;15.33;15.33;;;;;20.37;55.40;101752.16;5075214;28;45271;-76
2022/06/17 02:28:39;;;;;;;;;14.33;14.33;;;;;20.37;55.73;101759.44;5075630;28;44696;-76
2022/06/17 02:31:08;;;;;;;;;15.67;15.67;;;;;20.34;55.70;101762.56;5075953;28;45281;-76
2022/06/17 02:33:34;;;;;;;;;15.00;15.00;;;;;20.24;55.76;101757.63;5076356;28;45210;-75
2022/06/17 02:36:07;;;;;;;;;16.67;16.33;;;;;20.27;55.88;101770.69;5076437;28;45245;-75
2022/06/17 02:38:34;;;;;;;;;14.00;14.00;;;;;20.24;56.12;101761.16;5106886;27;44710;-76
2022/06/17 02:41:07;;;;;;;;;15.00;14.00;;;;;20.22;55.97;101770.50;5072815;28;46628;-76
2022/06/17 02:43:38;;;;;;;;;15.67;15.67;;;;;20.16;56.16;101753.28;5074491;28;46032;-76
2022/06/17 02:46:14;;;;;;;;;15.67;15.33;;;;;20.10;56.78;101746.91;5073458;28;45193;-76
2022/06/17 02:48:53;;;;;;;;;15.33;15.33;;;;;20.09;56.64;101763.28;5076704;28;45232;-76
2022/06/17 02:51:20;;;;;;;;;15.00;15.00;;;;;20.04;56.83;101767.47;5074853;28;45265;-76
2022/06/17 02:53:46;;;;;;;;;16.33;16.00;;;;;20.07;56.83;101768.91;5073787;28;47320;-76
2022/06/17 02:56:18;;;;;;;;;15.00;15.00;;;;;20.02;56.98;101768.72;5073556;28;45342;-76
2022/06/17 02:58:51;;;;;;;;;17.33;17.00;;;;;20.01;57.01;101769.75;5073589;28;45329;-76
2022/06/17 03:01:20;;;;;;;;;16.33;16.33;;;;;19.97;57.00;101765.78;5075916;28;45250;-76
2022/06/17 03:03:47;;;;;;;;;14.33;14.33;;;;;19.94;56.79;101769.75;5073950;27;46324;-77
2022/06/17 03:06:24;;;;;;;;;15.67;15.33;;;;;19.88;56.81;101763.34;5115622;27;45207;-76
2022/06/17 03:08:52;;;;;;;;;17.00;16.67;;;;;19.86;57.50;101764.56;5113640;27;45460;-76
2022/06/17 03:11:19;;;;;;;;;16.67;16.67;;;;;19.85;57.92;101774.56;5114138;27;46293;-76
2022/06/17 03:13:57;;;;;;;;;18.67;17.00;;;;;19.76;57.70;101765.03;5115057;27;47373;-77
2022/06/17 03:16:24;;;;;;;;;18.33;17.00;;;;;19.79;57.90;101775.41;5115157;27;45346;-76
2022/06/17 03:18:51;;;;;;;;;19.33;18.67;;;;;19.75;57.93;101776.88;5116738;27;45220;-76
2022/06/17 03:21:23;;;;;;;;;18.33;18.33;;;;;19.68;58.41;101766.06;5114918;27;46426;-76
2022/06/17 03:24:12;;;;;;;;;16.67;16.67;;;;;19.66;58.89;101777.06;5114143;27;45448;-75
2022/06/17 03:27:01;;;;;;;;;20.67;19.33;;;;;19.64;58.90;101768.34;5116956;27;45348;-75
2022/06/17 03:29:28;;;;;;;;;17.33;17.33;;;;;19.64;58.92;101767.53;5118327;27;44613;-76
2022/06/17 03:32:03;;;;;;;;;19.00;16.67;;;;;19.52;59.05;101752.00;5117536;27;45182;-75
2022/06/17 03:34:37;;;;;;;;;20.33;20.33;;;;;19.51;59.33;101750.34;5115276;27;45252;-76
2022/06/17 03:37:23;;;;;;;;;21.33;18.33;;;;;19.53;59.81;101767.16;5116802;27;44645;-75
2022/06/17 03:40:04;;;;;;;;;17.00;17.00;;;;;19.46;59.69;101744.75;5113694;27;44692;-75
2022/06/17 03:42:35;;;;;;;;;20.33;20.33;;;;;19.38;60.23;101747.66;5118534;27;45627;-75
2022/06/17 03:45:12;;;;;;;;;17.67;17.67;;;;;19.42;60.52;101756.97;5117961;27;45241;-76
2022/06/17 03:48:09;;;;;;;;;19.00;19.00;;;;;19.40;60.80;101753.69;5117537;27;44671;-76
2022/06/17 03:50:38;;;;;;;;;19.67;19.67;;;;;19.29;60.94;101745.19;5115552;27;45414;-76
2022/06/17 03:53:23;;;;;;;;;20.00;20.00;;;;;19.30;60.27;101744.16;5117221;27;45048;-75
2022/06/17 03:55:51;;;;;;;;;17.00;17.00;;;;;19.25;60.67;101738.53;5117763;27;45320;-76
2022/06/17 03:58:19;;;;;;;;;19.33;18.33;;;;;19.25;61.24;101743.94;5117310;27;44751;-76
2022/06/17 04:00:57;;;;;;;;;19.67;19.67;;;;;19.26;61.38;101742.91;5115024;27;45341;-76
2022/06/17 04:03:27;;;;;;;;;17.67;17.67;;;;;19.28;61.33;101729.22;5116794;27;47251;-75
2022/06/17 04:05:58;;;;;;;;;19.67;19.00;;;;;19.27;61.70;101731.09;5114616;27;47377;-76
2022/06/17 04:08:23;;;;;;;;;21.67;20.67;;;;;19.24;61.55;101719.91;5108592;27;46081;-76
2022/06/17 04:10:49;;;;;;;;;16.67;16.67;;;;;19.27;61.65;101724.84;5110361;27;45155;-76
2022/06/17 04:13:18;;;;;;;;;16.00;15.00;;;;;19.26;61.25;101740.22;5095469;27;44715;-76
2022/06/17 04:15:50;;;;;;;;;19.00;18.33;;;;;19.26;61.67;101769.03;5097697;28;47933;-75
2022/06/17 04:18:15;;;;;;;;;20.67;19.00;;;;;19.21;61.58;101780.41;5099981;28;45721;-76
2022/06/17 04:20:52;;;;;;;;;18.33;18.00;;;;;19.33;61.31;101799.50;5097536;27;44885;-77
2022/06/17 04:23:19;;;;;;;;;19.00;19.00;;;;;19.35;61.85;101789.34;5099497;27;45008;-75
2022/06/17 04:25:55;;;;;;;;;21.67;20.67;;;;;19.32;61.90;101768.19;5099294;28;47313;-76
2022/06/17 04:28:27;;;;;;;;;18.33;18.33;;;;;19.39;62.12;101778.97;5098106;28;45402;-77
2022/06/17 04:30:58;;;;;;;;;20.67;19.67;;;;;19.38;61.90;101778.16;5099465;27;44674;-75
2022/06/17 04:33:38;;;;;;;;;21.00;20.00;;;;;19.33;62.29;101783.31;5099711;27;45275;-75
2022/06/17 04:36:11;;;;;;;;;20.00;19.67;;;;;19.38;61.89;101786.22;5096797;27;45427;-76
2022/06/17 04:39:05;;;;;;;;;22.33;20.33;;;;;19.39;62.33;101779.81;5100550;28;45871;-75
2022/06/17 04:41:36;;;;;;;;;21.00;21.00;;;;;19.34;62.79;101766.13;5100848;27;45362;-77
2022/06/17 04:44:04;;;;;;;;;20.67;19.33;;;;;19.39;62.51;101770.88;5100440;27;45213;-77
2022/06/17 04:46:34;;;;;;;;;20.00;19.00;;;;;19.42;62.64;101770.47;5098294;27;46199;-78
2022/06/17 04:49:01;;;;;;;;;19.00;18.33;;;;;19.38;63.35;101761.97;5100250;28;44672;-77
2022/06/17 04:51:29;;;;;;;;;23.33;21.67;;;;;19.41;63.51;101771.50;5100620;28;45203;-77
2022/06/17 04:53:55;;;;;;;;;19.00;19.00;;;;;19.39;63.55;101771.72;5099205;27;45102;-77
2022/06/17 04:56:28;;;;;;;;;19.67;19.67;;;;;19.30;63.00;101765.72;5098527;28;47133;-77
2022/06/17 04:58:53;;;;;;;;;16.00;16.00;;;;;19.35;62.27;101773.16;5096739;28;45299;-77
2022/06/17 05:01:21;;;;;;;;;16.00;15.33;;;;;19.43;62.29;101774.84;5115475;27;45255;-78
2022/06/17 05:03:46;;;;;;;;;18.00;17.33;;;;;19.48;62.52;101776.91;5097688;27;45575;-77
2022/06/17 05:06:12;;;;;;;;;18.00;17.33;;;;;19.41;62.05;101763.41;5101823;27;45116;-77
2022/06/17 05:08:51;;;;;;;;;20.00;18.33;;;;;19.45;62.49;101764.66;5115271;27;45327;-76
2022/06/17 05:11:39;;;;;;;;;19.67;18.00;;;;;19.53;62.38;101775.25;5116896;27;44671;-74
2022/06/17 05:14:21;;;;;;;;;19.67;19.33;;;;;19.48;62.84;101763.44;5115684;27;45958;-77
2022/06/17 05:16:46;;;;;;;;;24.33;23.67;;;;;19.58;62.52;101768.38;5092967;27;45219;-77
2022/06/17 05:19:11;;;;;;;;;20.00;20.00;;;;;19.69;62.63;101773.13;5091094;27;45270;-77
2022/06/17 05:21:37;;;;;;;;;27.33;23.33;;;;;19.70;62.52;101779.34;5089994;27;45171;-78
2022/06/17 05:24:03;;;;;;;;;31.33;29.00;;;;;19.76;62.55;101782.06;5090324;28;47245;-76
2022/06/17 05:26:28;;;;;;;;;27.67;26.33;;;;;19.84;62.41;101780.97;5107836;27;47131;-76
2022/06/17 05:28:53;;;;;;;;;26.33;26.33;;;;;19.75;63.29;101750.72;5107072;27;44636;-77
2022/06/17 05:31:22;;;;;;;;;26.00;24.00;;;;;19.95;62.68;101776.81;5089167;27;45193;-75
2022/06/17 05:33:48;;;;;;;;;30.67;28.00;;;;;19.92;63.38;101763.72;5093444;27;45275;-75
2022/06/17 05:36:14;;;;;;;;;27.00;26.67;;;;;20.00;63.18;101758.13;5103180;27;47239;-77
2022/06/17 05:38:39;;;;;;;;;27.00;26.00;;;;;20.08;62.97;101751.66;5088223;28;45345;-75
2022/06/17 05:41:06;;;;;;;;;24.00;22.33;;;;;20.15;63.20;101748.94;5089267;27;45366;-74
2022/06/17 05:43:32;;;;;;;;;21.67;20.67;;;;;20.25;63.21;101761.97;5088257;27;45560;-74
2022/06/17 05:45:57;;;;;;;;;23.00;20.33;;;;;20.33;63.27;101763.59;5085114;27;45176;-74
2022/06/17 05:48:23;;;;;;;;;24.67;23.00;;;;;20.36;63.59;101761.31;5091096;27;45195;-75
2022/06/17 05:50:48;;;;;;;;;23.00;23.00;;;;;20.48;63.00;101774.97;5085036;27;45232;-74
2022/06/17 05:53:14;;;;;;;;;20.33;17.67;;;;;20.56;62.33;101769.28;5081475;28;46074;-73
2022/06/17 05:55:39;;;;;;;;;13.33;12.67;;;;;20.64;60.91;101772.78;5081465;27;46107;-73
2022/06/17 05:58:05;;;;;;;;;16.67;16.00;;;;;20.72;60.95;101771.69;5097645;27;45258;-73
2022/06/17 06:00:32;;;;;;;;;20.00;17.00;;;;;20.78;61.37;101763.56;5082007;27;45397;-73
2022/06/17 06:03:03;;;;;;;;;13.33;13.33;;;;;20.81;58.65;101762.28;5081605;27;45466;-73
2022/06/17 06:05:31;;;;;;;;;18.67;18.33;;;;;20.90;59.16;101762.88;5101278;27;45238;-74
2022/06/17 06:07:56;;;;;;;;;19.00;19.00;;;;;20.98;59.02;101764.50;5119406;27;45334;-74
2022/06/17 06:10:23;;;;;;;;;15.00;15.00;;;;;21.04;58.24;101761.72;5118054;27;45278;-74
2022/06/17 06:13:00;;;;;;;;;6.00;5.33;;;;;21.08;57.61;101758.59;5117856;27;46333;-75
2022/06/17 06:15:41;;;;;;;;;12.33;10.00;;;;;21.13;55.76;101758.78;5119517;27;48369;-77
2022/06/17 06:18:12;;;;;;;;;11.67;11.00;;;;;21.23;55.64;101769.91;5080515;28;45424;-75
2022/06/17 06:20:38;;;;;;;;;10.33;9.33;;;;;21.28;56.24;101772.75;5081994;27;45246;-76
2022/06/17 06:23:04;;;;;;;;;10.00;10.00;;;;;21.29;55.13;101758.22;5082036;27;45754;-77
2022/06/17 06:25:29;;;;;;;;;11.67;11.67;;;;;21.38;55.91;101763.31;5075514;27;46881;-75
2022/06/17 06:27:55;;;;;;;;;12.67;12.67;;;;;21.40;54.66;101747.72;5080023;28;45282;-76
2022/06/17 06:30:20;;;;;;;;;13.00;12.00;;;;;21.59;54.77;101766.66;5084991;27;45609;-78
2022/06/17 06:32:51;;;;;;;;;13.33;11.67;;;;;21.61;55.36;101751.84;5086655;28;45412;-78
2022/06/17 06:35:17;;;;;;;;;11.33;11.33;;;;;21.77;55.58;101747.78;5102817;27;47079;-79
2022/06/17 06:37:43;;;;;;;;;11.00;10.33;;;;;21.85;55.58;101752.03;5079653;28;45436;-78
2022/06/17 06:40:09;;;;;;;;;11.33;11.33;;;;;21.82;54.91;101739.00;5081416;28;45626;-79
2022/06/17 06:42:35;;;;;;;;;12.00;11.00;;;;;21.96;55.02;101741.53;5080894;28;45209;-79
2022/06/17 06:45:00;;;;;;;;;13.00;12.00;;;;;22.04;54.13;101752.88;5080485;28;45294;-78
2022/06/17 06:47:26;;;;;;;;;10.00;10.00;;;;;22.13;54.58;101752.56;5077160;28;45891;-78
2022/06/17 06:49:51;;;;;;;;;12.33;12.33;;;;;22.26;55.24;101748.84;5078651;28;45669;-78
2022/06/17 06:52:16;;;;;;;;;9.67;9.67;;;;;22.28;54.31;101742.16;5080512;28;45301;-79
2022/06/17 06:54:42;;;;;;;;;10.00;10.00;;;;;22.38;54.84;101741.59;5079528;28;47380;-78
2022/06/17 06:57:09;;;;;;;;;11.67;11.33;;;;;22.43;54.38;101735.50;5080581;28;45675;-78
2022/06/17 06:59:35;;;;;;;;;10.33;10.33;;;;;22.49;54.79;101721.03;5080969;28;45327;-79
2022/06/17 07:02:00;;;;;;;;;12.00;12.00;;;;;22.61;54.40;101721.09;5076347;28;51224;-79
2022/06/17 07:04:25;;;;;;;;;10.33;10.33;;;;;22.71;54.92;101723.22;5078937;27;46076;-79
2022/06/17 07:06:51;;;;;;;;;10.00;10.00;;;;;22.77;54.66;101726.88;5077800;28;45350;-79
2022/06/17 07:09:16;;;;;;;;;11.33;11.33;;;;;22.83;54.79;101712.41;5079602;27;45496;-79
2022/06/17 07:11:42;;;;;;;;;13.00;13.00;;;;;22.93;54.97;101730.81;5079455;27;45299;-79
2022/06/17 07:14:07;;;;;;;;;11.00;11.00;;;;;22.91;55.63;101716.66;5078173;28;46945;-79
2022/06/17 07:16:32;;;;;;;;;10.67;10.67;;;;;23.03;54.66;101724.81;5079726;28;45338;-79
2022/06/17 07:18:57;;;;;;;;;13.00;13.00;;;;;23.13;53.82;101711.50;5079426;28;45316;-79
2022/06/17 07:21:23;;;;;;;;;11.67;11.67;;;;;23.19;54.11;101704.28;5080028;28;45973;-78
2022/06/17 07:23:48;;;;;;;;;10.33;8.67;;;;;23.29;54.26;101714.56;5080278;28;46549;-78
2022/06/17 07:26:13;;;;;;;;;11.00;11.00;;;;;23.39;53.35;101716.69;5079653;28;45293;-79
2022/06/17 07:28:39;;;;;;;;;10.33;10.33;;;;;23.43;52.83;101717.88;5079497;27;45363;-79
2022/06/17 07:31:04;;;;;;;;;12.33;12.33;;;;;23.54;51.10;101735.19;5078518;28;47027;-79
2022/06/17 07:33:31;;;;;;;;;13.00;13.00;;;;;23.62;52.14;101745.69;5080118;27;46028;-80
2022/06/17 07:36:00;;;;;;;;;8.33;8.33;;;;;23.73;51.43;101760.28;5080212;27;45432;-79
2022/06/17 07:41:17;;;;;;;;;10.67;10.00;;;;;23.94;50.95;101771.56;5079438;28;45386;-79
2022/06/17 07:43:43;;;;;;;;;9.67;9.67;;;;;24.03;50.96;101770.13;5078325;28;46899;-78
2022/06/17 07:46:10;;;;;;;;;11.00;11.00;;;;;24.11;50.84;101768.09;5081307;28;45344;-79
2022/06/17 07:48:37;;;;;;;;;12.67;12.00;;;;;24.20;50.19;101761.25;5082278;27;45266;-79
2022/06/17 07:51:03;;;;;;;;;12.00;12.00;;;;;24.31;49.73;101760.41;5079679;27;45239;-79
2022/06/17 07:53:32;;;;;;;;;12.33;12.33;;;;;24.38;49.35;101765.69;5078973;27;45408;-81
2022/06/17 07:55:59;;;;;;;;;10.67;10.67;;;;;24.38;49.21;101751.25;5079084;28;45251;-79
2022/06/17 07:58:25;;;;;;;;;12.33;12.33;;;;;24.50;49.12;101753.91;5078310;28;45410;-79
2022/06/17 08:00:50;;;;;;;;;14.67;13.67;;;;;24.53;49.69;101739.84;5079380;28;45331;-79
2022/06/17 08:03:18;;;;;;;;;12.33;12.33;;;;;24.70;48.93;101764.34;5078964;28;45334;-79
2022/06/17 08:05:51;;;;;;;;;13.00;12.00;;;;;24.84;49.12;101771.09;5096124;27;45325;-79
2022/06/17 08:08:21;;;;;;;;;12.00;12.00;;;;;24.96;48.89;101772.97;5099951;27;45462;-78
2022/06/17 08:10:52;;;;;;;;;11.67;11.67;;;;;25.05;49.04;101782.34;5099641;27;45296;-79
2022/06/17 08:13:17;;;;;;;;;11.00;11.00;;;;;25.09;48.28;101772.63;5098531;27;46363;-79
2022/06/17 08:15:43;;;;;;;;;13.00;12.33;;;;;25.19;47.24;101782.84;5100027;27;45251;-79
2022/06/17 08:18:10;;;;;;;;;12.33;11.00;;;;;25.32;47.24;101795.25;5087297;27;45327;-79
2022/06/17 08:20:36;;;;;;;;;12.00;12.00;;;;;25.38;46.54;101784.47;5079673;28;45428;-80
2022/06/17 08:23:03;;;;;;;;;13.00;13.00;;;;;25.50;46.97;101790.63;5092546;27;47566;-79
2022/06/17 08:25:29;;;;;;;;;11.33;11.33;;;;;25.62;46.69;101790.53;5078987;27;45281;-79
2022/06/17 08:27:57;;;;;;;;;11.33;11.33;;;;;25.68;46.18;101794.97;5079433;28;45294;-80
2022/06/17 08:30:25;;;;;;;;;12.00;12.00;;;;;25.86;46.42;101797.66;5077916;28;46067;-79
2022/06/17 08:32:55;;;;;;;;;9.33;9.33;;;;;25.92;46.88;101797.47;5079078;28;45436;-80
2022/06/17 08:35:26;;;;;;;;;12.00;12.00;;;;;25.99;46.56;101789.13;5112143;27;45337;-80
2022/06/17 08:38:08;;;;;;;;;13.00;11.00;;;;;26.10;45.57;101796.31;5078737;27;45267;-80
2022/06/17 08:40:36;;;;;;;;;14.00;12.00;;;;;26.27;45.80;101800.88;5079124;28;45352;-79
2022/06/17 08:43:30;;;;;;;;;14.33;14.00;;;;;26.40;45.41;101802.41;5079231;28;46688;-79
2022/06/17 08:46:23;;;;;;;;;12.00;11.00;;;;;26.54;46.19;101804.72;5069770;28;46054;-80
2022/06/17 08:49:13;;;;;;;;;12.67;12.67;;;;;26.63;44.38;101792.28;5071227;28;45467;-79
2022/06/17 08:52:16;;;;;;;;;11.00;11.00;;;;;26.72;43.92;101790.72;5076847;28;46259;-79
2022/06/17 08:55:00;;;;;;;;;10.00;10.00;;;;;26.82;44.22;101789.19;5076507;28;45362;-79
2022/06/17 08:57:25;;;;;;;;;11.00;11.00;;;;;26.92;44.65;101791.16;5074364;28;45412;-79
2022/06/17 09:00:05;;;;;;;;;12.33;12.33;;;;;27.00;42.73;101789.91;5077917;28;45456;-79
2022/06/17 09:02:47;;;;;;;;;12.00;11.00;;;;;27.05;43.32;101798.09;5070881;28;45466;-79
2022/06/17 09:05:32;;;;;;;;;9.00;9.00;;;;;27.05;39.99;101782.56;5074877;27;45489;-80
2022/06/17 09:08:26;;;;;;;;;9.33;7.67;;;;;27.19;41.13;101791.13;5068825;28;45386;-80
2022/06/17 09:11:06;;;;;;;;;11.33;11.33;;;;;27.28;40.64;101779.72;5072162;28;45536;-80
2022/06/17 09:13:57;;;;;;;;;12.00;11.67;;;;;27.30;40.01;101763.91;5076101;27;45894;-80
2022/06/17 09:16:35;;;;;;;;;10.00;10.00;;;;;27.43;40.76;101779.00;5080139;28;46216;-79
2022/06/17 09:19:02;;;;;;;;;14.33;11.67;;;;;27.50;40.29;101776.84;5076802;27;45454;-79
2022/06/17 09:21:51;;;;;;;;;12.33;11.67;;;;;27.56;38.80;101778.53;5078207;28;45280;-80
2022/06/17 09:24:21;;;;;;;;;10.67;10.67;;;;;27.59;38.30;101761.59;5072220;28;45321;-80
2022/06/17 09:27:03;;;;;;;;;13.33;12.33;;;;;27.69;39.12;101766.34;5097687;27;47265;-81
2022/06/17 09:29:39;;;;;;;;;11.00;11.00;;;;;27.77;38.56;101762.25;5081749;27;45312;-80
2022/06/17 09:32:14;;;;;;;;;12.33;12.33;;;;;27.85;39.25;101760.94;5082156;28;45354;-81
2022/06/17 09:34:39;;;;;;;;;11.33;11.33;;;;;27.92;37.96;101768.88;5097630;27;46019;-81
2022/06/17 09:37:24;;;;;;;;;11.00;11.00;;;;;27.94;38.47;101759.34;5080498;27;48398;-81
2022/06/17 09:39:56;;;;;;;;;12.33;12.33;;;;;28.04;37.71;101766.72;5081998;27;45467;-81
2022/06/17 09:42:38;;;;;;;;;10.00;10.00;;;;;28.16;37.59;101776.63;5080333;28;45322;-80
2022/06/17 09:45:06;;;;;;;;;9.67;9.67;;;;;28.24;37.22;101767.88;5082800;27;45380;-81
2022/06/17 09:47:41;;;;;;;;;8.00;8.00;;;;;28.32;37.67;101758.34;5080510;27;47315;-80
2022/06/17 09:50:32;;;;;;;;;11.00;11.00;;;;;28.44;37.82;101767.13;5094000;27;45475;-80
2022/06/17 09:53:14;;;;;;;;;10.33;9.67;;;;;28.59;37.32;101766.31;5080412;28;45363;-81
2022/06/17 09:55:46;;;;;;;;;13.33;11.33;;;;;28.65;37.22;101760.84;5079781;28;45394;-79
2022/06/17 09:58:21;;;;;;;;;10.67;10.67;;;;;28.78;37.37;101764.94;5081638;27;46397;-76
2022/06/17 10:00:51;;;;;;;;;11.00;10.33;;;;;28.81;36.13;101743.34;5071585;28;45398;-78
2022/06/17 10:03:22;;;;;;;;;9.67;9.67;;;;;28.98;35.74;101761.41;5077713;28;45265;-78
2022/06/17 10:06:06;;;;;;;;;9.67;9.67;;;;;29.09;35.85;101762.22;5081966;27;45583;-79
2022/06/17 10:08:32;;;;;;;;;7.67;7.67;;;;;29.17;35.15;101766.28;5079857;27;47571;-78
2022/06/17 10:11:18;;;;;;;;;10.67;10.33;;;;;29.27;33.97;101771.75;5080686;27;45348;-77
2022/06/17 10:13:49;;;;;;;;;11.33;11.33;;;;;29.33;34.98;101770.63;5076967;28;45487;-79
2022/06/17 10:19:50;;;;;;;;;10.00;10.00;;;;;29.58;34.68;101768.97;5080614;28;45385;-78
2022/06/17 10:22:24;;;;;;;;;10.67;10.67;;;;;29.69;35.07;101763.44;5080801;27;45220;-78
2022/06/17 10:25:05;;;;;;;;;10.00;9.00;;;;;29.81;35.36;101761.19;5081260;27;45294;-77
2022/06/17 10:27:42;;;;;;;;;8.67;8.67;;;;;29.95;34.69;101755.09;5080851;27;45354;-78
2022/06/17 10:30:14;;;;;;;;;9.00;9.00;;;;;30.12;34.74;101754.72;5080865;27;46298;-79
2022/06/17 10:32:44;;;;;;;;;12.00;12.00;;;;;30.27;34.64;101756.59;5080934;27;45309;-78
2022/06/17 10:35:18;;;;;;;;;12.33;11.33;;;;;30.39;34.59;101748.00;5081207;28;45254;-79
2022/06/17 10:37:44;;;;;;;;;11.33;11.33;;;;;30.54;33.85;101751.72;5080597;27;45600;-79
2022/06/17 10:40:15;;;;;;;;;10.00;10.00;;;;;30.63;32.38;101747.25;5080289;27;45705;-79
2022/06/17 10:42:46;;;;;;;;;10.00;9.33;;;;;30.74;33.18;101756.22;5080176;27;45259;-79
2022/06/17 10:45:15;;;;;;;;;11.00;11.00;;;;;30.76;32.27;101734.00;5078610;27;45382;-82
2022/06/17 10:47:54;;;;;;;;;11.00;11.00;;;;;31.03;32.66;101762.84;5080153;27;45489;-80
2022/06/17 10:50:19;;;;;;;;;11.00;11.00;;;;;31.23;32.40;101765.38;5074718;27;47094;-82
2022/06/17 10:53:17;;;;;;;;;9.67;9.67;;;;;31.43;31.75;101749.00;5078876;28;45799;-82
2022/06/17 10:55:47;;;;;;;;;12.00;11.00;;;;;31.55;31.78;101748.59;5065150;27;45519;-81
2022/06/17 10:58:24;;;;;;;;;8.33;8.33;;;;;31.73;31.06;101746.97;5080498;27;45278;-78
2022/06/17 11:01:04;;;;;;;;;9.33;9.33;;;;;31.89;32.71;101744.84;5067424;27;45324;-79
2022/06/17 11:03:41;;;;;;;;;8.00;8.00;;;;;32.03;31.15;101744.94;5068094;28;45424;-78
2022/06/17 11:06:16;;;;;;;;;7.33;7.33;;;;;32.27;28.96;101749.53;5082723;27;45175;-79
2022/06/17 11:08:55;;;;;;;;;8.00;8.00;;;;;32.38;30.88;101744.69;5078860;28;46970;-79
2022/06/17 11:14:39;;;;;;;;;8.00;8.00;;;;;32.84;29.94;101756.88;5079882;28;45383;-78
2022/06/17 11:17:22;;;;;;;;;8.00;8.00;;;;;33.02;29.61;101761.78;5076206;27;45509;-79
2022/06/17 11:19:52;;;;;;;;;7.33;7.33;;;;;33.12;29.03;101759.69;5080124;27;45406;-80
2022/06/17 11:22:25;;;;;;;;;6.00;6.00;;;;;33.24;28.38;101761.13;5079686;27;46296;-79
2022/06/17 11:24:58;;;;;;;;;7.67;7.67;;;;;33.41;28.44;101751.41;5079674;28;45721;-78
2022/06/17 11:27:47;;;;;;;;;6.00;6.00;;;;;33.57;28.06;101761.00;5079194;27;45488;-79
2022/06/17 11:30:21;;;;;;;;;7.33;6.00;;;;;33.72;28.33;101759.88;5070838;28;47567;-78
2022/06/17 11:32:48;;;;;;;;;7.67;6.67;;;;;33.88;28.26;101746.56;5079085;27;45181;-78
2022/06/17 11:35:27;;;;;;;;;6.00;6.00;;;;;34.06;27.36;101751.44;5079661;27;45296;-79
2022/06/17 11:37:54;;;;;;;;;6.67;6.67;;;;;34.20;27.72;101754.97;5091631;27;45257;-78
2022/06/17 11:40:25;;;;;;;;;9.33;8.67;;;;;34.32;26.49;101759.94;5058839;28;45454;-79
2022/06/17 11:42:51;;;;;;;;;7.67;7.67;;;;;34.42;27.09;101766.34;5078441;28;45384;-80
2022/06/17 11:45:25;;;;;;;;;9.67;9.67;;;;;34.55;26.93;101759.09;5078094;27;45362;-79